createdAt,value
2023-05-14T00:01:31.691Z,99.90
2023-05-14T00:03:58.714Z,99.90
2023-05-14T00:06:25.761Z,99.90
2023-05-14T00:08:52.492Z,99.90
2023-05-14T00:11:19.523Z,99.90
2023-05-14T00:13:46.287Z,99.90
2023-05-14T00:16:13.134Z,99.90
2023-05-14T00:18:39.901Z,99.90
2023-05-14T00:21:06.664Z,99.90
2023-05-14T00:23:33.461Z,99.90
2023-05-14T00:26:00.169Z,99.90
2023-05-14T00:28:26.880Z,99.90
2023-05-14T00:30:53.699Z,99.90
2023-05-14T00:33:20.507Z,99.90
2023-05-14T00:35:47.237Z,99.90
2023-05-14T00:38:17.655Z,99.90
2023-05-14T00:40:45.982Z,99.90
2023-05-14T00:43:12.699Z,99.90
2023-05-14T00:45:39.474Z,99.90
2023-05-14T00:48:06.326Z,99.90
2023-05-14T00:50:34.624Z,99.90
2023-05-14T00:53:01.462Z,99.90
2023-05-14T00:55:30.757Z,99.90
2023-05-14T00:57:58.916Z,99.90
2023-05-14T01:00:26.070Z,99.90
2023-05-14T01:02:53.034Z,99.90
2023-05-14T01:05:20.101Z,99.90
2023-05-14T01:08:06.877Z,99.90
2023-05-14T01:11:20.327Z,99.90
2023-05-14T01:14:25.695Z,99.90
2023-05-14T01:16:55.782Z,99.90
2023-05-14T01:19:33.459Z,99.90
2023-05-14T01:22:00.215Z,99.90
2023-05-14T01:24:27.008Z,99.90
2023-05-14T01:26:58.664Z,99.90
2023-05-14T01:29:29.013Z,99.90
2023-05-14T01:31:58.633Z,99.90
2023-05-14T01:34:28.374Z,99.90
2023-05-14T01:36:56.750Z,99.90
2023-05-14T01:39:24.980Z,99.90
2023-05-14T01:41:52.694Z,99.90
2023-05-14T01:44:20.286Z,99.90
2023-05-14T01:46:47.088Z,99.90
2023-05-14T01:49:13.864Z,99.90
2023-05-14T01:51:40.582Z,99.90
2023-05-14T01:54:07.327Z,99.90
2023-05-14T01:56:34.063Z,99.90
2023-05-14T01:59:00.847Z,99.90
2023-05-14T02:01:27.698Z,99.90
2023-05-14T02:03:54.507Z,99.90
2023-05-14T02:06:21.190Z,99.90
2023-05-14T02:08:47.945Z,99.90
2023-05-14T02:11:14.656Z,99.90
2023-05-14T02:13:41.410Z,99.90
2023-05-14T02:16:08.402Z,99.90
2023-05-14T02:18:35.361Z,99.90
2023-05-14T02:21:02.190Z,99.90
2023-05-14T02:23:40.588Z,99.90
2023-05-14T02:26:09.887Z,99.90
2023-05-14T02:28:36.635Z,99.90
2023-05-14T02:31:03.634Z,99.90
2023-05-14T02:33:30.559Z,99.90
2023-05-14T02:35:57.319Z,99.90
2023-05-14T02:38:24.224Z,99.90
2023-05-14T02:40:50.999Z,99.90
2023-05-14T02:43:17.710Z,99.90
2023-05-14T02:45:44.545Z,99.90
2023-05-14T02:48:11.341Z,99.90
2023-05-14T02:51:01.084Z,99.90
2023-05-14T02:53:27.840Z,99.90
2023-05-14T02:55:54.574Z,99.90
2023-05-14T02:58:26.168Z,99.90
2023-05-14T03:00:55.684Z,99.90
2023-05-14T03:03:23.024Z,99.90
2023-05-14T03:05:50.202Z,99.90
2023-05-14T03:08:16.929Z,99.90
2023-05-14T03:10:43.620Z,99.90
2023-05-14T03:13:10.506Z,99.90
2023-05-14T03:15:37.200Z,99.90
2023-05-14T03:18:04.021Z,99.90
2023-05-14T03:20:30.732Z,99.90
2023-05-14T03:22:57.460Z,99.90
2023-05-14T03:25:24.221Z,99.90
2023-05-14T03:27:50.932Z,99.90
2023-05-14T03:30:17.727Z,99.90
2023-05-14T03:32:45.092Z,99.90
2023-05-14T03:35:11.819Z,99.90
2023-05-14T03:37:38.555Z,99.90
2023-05-14T03:40:05.985Z,99.90
2023-05-14T03:42:32.733Z,99.90
2023-05-14T03:44:59.502Z,99.90
2023-05-14T03:47:26.217Z,99.90
2023-05-14T03:49:53.146Z,99.90
2023-05-14T03:52:19.919Z,99.90
2023-05-14T03:54:46.670Z,99.90
2023-05-14T03:57:13.380Z,99.90
2023-05-14T03:59:40.108Z,99.90
2023-05-14T04:02:07.228Z,99.90
2023-05-14T04:04:34.059Z,99.90
2023-05-14T04:07:00.810Z,99.90
2023-05-14T04:09:27.568Z,99.90
2023-05-14T04:11:54.308Z,99.90
2023-05-14T04:14:21.046Z,99.90
2023-05-14T04:16:47.793Z,99.90
2023-05-14T04:19:14.566Z,99.90
2023-05-14T04:21:41.376Z,99.90
2023-05-14T04:24:08.288Z,99.90
2023-05-14T04:26:35.358Z,99.90
2023-05-14T04:29:03.441Z,99.90
2023-05-14T04:31:31.650Z,99.90
2023-05-14T04:33:58.644Z,99.90
2023-05-14T04:36:25.379Z,99.90
2023-05-14T04:38:52.095Z,99.90
2023-05-14T04:41:18.832Z,99.90
2023-05-14T04:43:46.843Z,99.90
2023-05-14T04:46:13.984Z,99.90
2023-05-14T04:48:41.003Z,99.90
2023-05-14T04:51:07.924Z,99.90
2023-05-14T04:53:34.595Z,99.90
2023-05-14T04:56:01.280Z,99.90
2023-05-14T04:58:29.223Z,99.90
2023-05-14T05:00:55.993Z,99.90
2023-05-14T05:03:22.789Z,99.90
2023-05-14T05:05:49.626Z,99.90
2023-05-14T05:08:16.512Z,99.90
2023-05-14T05:10:43.203Z,99.90
2023-05-14T05:13:09.917Z,99.90
2023-05-14T05:15:36.702Z,99.90
2023-05-14T05:18:03.654Z,99.90
2023-05-14T05:20:31.038Z,99.90
2023-05-14T05:22:57.764Z,99.90
2023-05-14T05:25:24.443Z,99.90
2023-05-14T05:27:51.234Z,99.90
2023-05-14T05:30:18.059Z,99.90
2023-05-14T05:32:44.994Z,99.90
2023-05-14T05:35:11.719Z,99.90
2023-05-14T05:37:38.439Z,99.90
2023-05-14T05:40:06.325Z,99.90
2023-05-14T05:42:32.997Z,99.90
2023-05-14T05:44:59.721Z,99.90
2023-05-14T05:47:26.481Z,99.90
2023-05-14T05:49:54.065Z,99.90
2023-05-14T05:52:20.923Z,99.90
2023-05-14T05:54:47.594Z,99.90
2023-05-14T05:57:14.337Z,99.90
2023-05-14T05:59:41.131Z,99.90
2023-05-14T06:02:07.989Z,99.90
2023-05-14T06:04:53.851Z,99.90
2023-05-14T06:07:21.107Z,99.90
2023-05-14T06:09:47.811Z,99.90
2023-05-14T06:12:14.526Z,99.90
2023-05-14T06:14:41.369Z,99.90
2023-05-14T06:17:16.214Z,99.90
2023-05-14T06:19:42.934Z,99.90
2023-05-14T06:22:09.653Z,99.90
2023-05-14T06:24:36.392Z,99.90
2023-05-14T06:27:03.093Z,99.90
2023-05-14T06:29:29.818Z,99.90
2023-05-14T06:32:01.324Z,99.90
2023-05-14T06:34:28.059Z,99.90
2023-05-14T06:36:54.786Z,99.90
2023-05-14T06:39:21.520Z,99.90
2023-05-14T06:41:48.266Z,99.90
2023-05-14T06:44:15.977Z,99.90
2023-05-14T06:46:42.732Z,99.90
2023-05-14T06:49:09.528Z,99.90
2023-05-14T06:51:36.284Z,99.90
2023-05-14T06:54:02.944Z,99.90
2023-05-14T06:56:29.648Z,99.90
2023-05-14T06:58:56.384Z,99.90
2023-05-14T07:01:23.131Z,99.90
2023-05-14T07:03:49.912Z,99.90
2023-05-14T07:06:17.991Z,99.90
2023-05-14T07:08:47.399Z,99.90
2023-05-14T07:11:14.509Z,99.90
2023-05-14T07:13:41.822Z,99.90
2023-05-14T07:16:11.950Z,99.90
2023-05-14T07:18:38.769Z,99.90
2023-05-14T07:21:06.591Z,99.90
2023-05-14T07:23:36.266Z,99.90
2023-05-14T07:26:03.425Z,99.90
2023-05-14T07:28:30.164Z,99.90
2023-05-14T07:30:56.899Z,99.90
2023-05-14T07:33:24.528Z,99.90
2023-05-14T07:35:51.946Z,99.90
2023-05-14T07:38:19.215Z,99.90
2023-05-14T07:40:46.016Z,99.90
2023-05-14T07:43:12.854Z,99.90
2023-05-14T07:45:39.765Z,99.90
2023-05-14T07:48:06.736Z,99.90
2023-05-14T07:50:33.494Z,99.90
2023-05-14T07:53:00.285Z,99.90
2023-05-14T07:55:26.996Z,99.90
2023-05-14T07:57:53.735Z,99.90
2023-05-14T08:00:20.711Z,99.90
2023-05-14T08:02:49.078Z,99.90
2023-05-14T08:05:16.674Z,99.90
2023-05-14T08:07:43.475Z,99.90
2023-05-14T08:10:10.621Z,99.90
2023-05-14T08:12:37.348Z,99.90
2023-05-14T08:15:04.511Z,99.90
2023-05-14T08:17:31.257Z,99.90
2023-05-14T08:19:57.972Z,99.90
2023-05-14T08:22:24.726Z,99.90
2023-05-14T08:24:51.393Z,99.90
2023-05-14T08:27:18.022Z,99.90
2023-05-14T08:29:59.023Z,99.90
2023-05-14T08:32:25.851Z,99.90
2023-05-14T08:34:52.684Z,99.90
2023-05-14T08:37:19.635Z,99.90
2023-05-14T08:39:46.312Z,99.90
2023-05-14T08:42:51.216Z,99.90
2023-05-14T08:45:25.723Z,99.90
2023-05-14T08:47:52.933Z,99.90
2023-05-14T08:50:22.633Z,99.90
2023-05-14T08:52:50.506Z,99.90
2023-05-14T08:55:17.291Z,99.90
2023-05-14T08:57:44.024Z,99.90
2023-05-14T09:00:11.920Z,99.90
2023-05-14T09:02:40.593Z,99.90
2023-05-14T09:05:09.246Z,99.90
2023-05-14T09:07:36.660Z,99.90
2023-05-14T09:10:04.108Z,99.90
2023-05-14T09:12:31.422Z,99.90
2023-05-14T09:14:58.193Z,99.90
2023-05-14T09:17:27.657Z,99.90
2023-05-14T09:19:54.619Z,99.90
2023-05-14T09:22:21.741Z,99.90
2023-05-14T09:25:03.542Z,99.90
2023-05-14T09:27:31.884Z,99.90
2023-05-14T09:30:09.772Z,99.90
2023-05-14T09:32:38.193Z,99.90
2023-05-14T09:35:17.475Z,99.90
2023-05-14T09:37:50.234Z,99.90
2023-05-14T09:40:18.202Z,99.90
2023-05-14T09:42:45.445Z,99.90
2023-05-14T09:45:12.823Z,99.90
2023-05-14T09:47:40.107Z,99.90
2023-05-14T09:50:07.952Z,99.90
2023-05-14T09:52:35.232Z,99.90
2023-05-14T09:55:02.411Z,99.90
2023-05-14T09:57:29.149Z,99.90
2023-05-14T09:59:55.979Z,99.90
2023-05-14T10:02:25.355Z,99.90
2023-05-14T10:04:58.820Z,99.90
2023-05-14T10:07:31.510Z,99.90
2023-05-14T10:10:02.000Z,99.90
2023-05-14T10:12:34.098Z,99.90
2023-05-14T10:15:06.887Z,99.90
2023-05-14T10:17:37.930Z,99.90
2023-05-14T10:20:09.220Z,99.90
2023-05-14T10:22:36.129Z,99.90
2023-05-14T10:25:04.001Z,99.90
2023-05-14T10:27:31.303Z,99.90
2023-05-14T10:29:58.392Z,99.90
2023-05-14T10:32:26.479Z,99.90
2023-05-14T10:34:54.077Z,99.90
2023-05-14T10:37:26.372Z,99.90
2023-05-14T10:39:57.608Z,99.90
2023-05-14T10:42:35.941Z,99.90
2023-05-14T10:45:07.512Z,99.90
2023-05-14T10:47:48.872Z,99.90
2023-05-14T10:50:17.418Z,99.90
2023-05-14T10:52:45.538Z,99.90
2023-05-14T10:55:16.902Z,99.90
2023-05-14T10:57:46.987Z,99.90
2023-05-14T11:00:14.817Z,99.90
2023-05-14T11:02:45.778Z,99.90
2023-05-14T11:05:16.056Z,99.90
2023-05-14T11:07:48.757Z,99.90
2023-05-14T11:10:18.428Z,99.90
2023-05-14T11:12:46.793Z,99.90
2023-05-14T11:15:16.062Z,99.90
2023-05-14T11:17:44.206Z,99.90
2023-05-14T11:20:12.043Z,99.90
2023-05-14T11:22:40.786Z,99.90
2023-05-14T11:25:08.779Z,99.90
2023-05-14T11:27:38.645Z,99.90
2023-05-14T11:30:06.622Z,99.90
2023-05-14T11:32:33.908Z,99.90
2023-05-14T11:35:00.837Z,99.90
2023-05-14T11:37:27.550Z,99.90
2023-05-14T11:39:59.876Z,99.90
2023-05-14T11:42:26.739Z,99.90
2023-05-14T11:44:56.673Z,99.90
2023-05-14T11:47:23.520Z,99.90
2023-05-14T11:49:50.313Z,99.90
2023-05-14T11:52:19.626Z,99.90
2023-05-14T11:54:47.028Z,99.90
2023-05-14T11:57:22.406Z,99.90
2023-05-14T11:59:55.964Z,99.90
2023-05-14T12:02:23.090Z,99.90
2023-05-14T12:04:52.136Z,99.90
2023-05-14T12:07:19.196Z,99.90
2023-05-14T12:09:50.644Z,99.90
2023-05-14T12:12:22.267Z,99.90
2023-05-14T12:14:50.632Z,99.90
2023-05-14T12:17:17.424Z,99.90
2023-05-14T12:19:45.869Z,99.90
2023-05-14T12:22:15.525Z,99.90
2023-05-14T12:24:43.700Z,99.90
2023-05-14T12:27:15.647Z,99.90
2023-05-14T12:29:43.453Z,99.90
2023-05-14T12:32:11.057Z,99.90
2023-05-14T12:34:38.566Z,99.90
2023-05-14T12:37:06.604Z,99.90
2023-05-14T12:39:34.403Z,99.90
2023-05-14T12:42:01.616Z,99.90
2023-05-14T12:44:33.367Z,99.90
2023-05-14T12:47:00.176Z,99.90
2023-05-14T12:49:26.965Z,99.90
2023-05-14T12:52:07.814Z,99.90
2023-05-14T12:54:43.390Z,99.90
2023-05-14T12:57:10.335Z,99.90
2023-05-14T12:59:37.116Z,99.90
2023-05-14T13:02:03.830Z,99.90
2023-05-14T13:04:30.632Z,99.90
2023-05-14T13:06:57.418Z,99.90
2023-05-14T13:09:24.138Z,99.90
2023-05-14T13:11:51.126Z,99.90
2023-05-14T13:14:18.997Z,99.90
2023-05-14T13:16:47.052Z,99.90
2023-05-14T13:19:13.870Z,99.90
2023-05-14T13:21:40.700Z,99.90
2023-05-14T13:24:07.572Z,96.70
2023-05-14T13:26:34.316Z,94.40
2023-05-14T13:29:01.061Z,95.20
2023-05-14T13:31:37.042Z,93.30
2023-05-14T13:34:04.233Z,90.10
2023-05-14T13:36:42.239Z,84.30
2023-05-14T13:39:10.796Z,84.10
2023-05-14T13:41:46.671Z,80.60
2023-05-14T13:44:13.410Z,80.90
2023-05-14T13:46:40.250Z,94.10
2023-05-14T13:49:07.011Z,94.10
2023-05-14T13:51:33.660Z,88.70
2023-05-14T13:54:00.368Z,94.50
2023-05-14T13:56:27.089Z,94.60
2023-05-14T13:58:54.093Z,97.30
2023-05-14T14:01:20.961Z,99.90
2023-05-14T14:03:48.712Z,99.90
2023-05-14T14:06:15.395Z,99.90
2023-05-14T14:08:42.206Z,98.60
2023-05-14T14:11:08.965Z,92.40
2023-05-14T14:13:36.440Z,92.30
2023-05-14T14:16:03.603Z,97.30
2023-05-14T14:18:30.365Z,99.90
2023-05-14T14:20:57.532Z,99.90
2023-05-14T14:23:24.322Z,99.90
2023-05-14T14:25:50.982Z,99.90
2023-05-14T14:28:17.774Z,99.90
2023-05-14T14:31:02.401Z,99.90
2023-05-14T14:33:29.101Z,99.90
2023-05-14T14:35:55.880Z,99.90
2023-05-14T14:38:22.570Z,99.90
2023-05-14T14:40:49.695Z,99.90
2023-05-14T14:43:16.644Z,99.90
2023-05-14T14:45:46.845Z,99.90
2023-05-14T14:48:25.882Z,99.90
2023-05-14T14:50:53.477Z,99.90
2023-05-14T14:53:23.600Z,99.90
2023-05-14T14:55:51.084Z,99.90
2023-05-14T14:58:19.439Z,99.90
2023-05-14T15:00:46.491Z,99.90
2023-05-14T15:03:15.013Z,99.90
2023-05-14T15:05:41.958Z,99.90
2023-05-14T15:08:08.719Z,99.90
2023-05-14T15:10:37.988Z,99.90
2023-05-14T15:13:08.957Z,99.90
2023-05-14T15:15:36.127Z,99.90
2023-05-14T15:18:04.207Z,99.90
2023-05-14T15:20:30.967Z,99.90
2023-05-14T15:22:57.699Z,99.90
2023-05-14T15:25:25.116Z,99.90
2023-05-14T15:28:09.606Z,99.90
2023-05-14T15:30:36.367Z,99.90
2023-05-14T15:33:03.172Z,99.90
2023-05-14T15:35:29.985Z,99.90
2023-05-14T15:37:59.576Z,99.90
2023-05-14T15:40:27.946Z,99.90
2023-05-14T15:42:54.715Z,99.90
2023-05-14T15:45:21.625Z,99.90
2023-05-14T15:47:48.424Z,99.90
2023-05-14T15:50:15.134Z,99.90
2023-05-14T15:52:41.854Z,99.90
2023-05-14T15:55:09.218Z,99.90
2023-05-14T15:57:35.970Z,99.90
2023-05-14T16:00:10.052Z,99.90
2023-05-14T16:02:37.975Z,99.90
2023-05-14T16:05:05.018Z,99.90
2023-05-14T16:07:31.748Z,99.90
2023-05-14T16:09:58.507Z,99.90
2023-05-14T16:12:25.402Z,99.90
2023-05-14T16:14:52.280Z,99.90
2023-05-14T16:17:19.200Z,99.90
2023-05-14T16:19:45.994Z,99.90
2023-05-14T16:22:12.725Z,99.90
2023-05-14T16:24:39.491Z,99.90
2023-05-14T16:27:13.141Z,99.90
2023-05-14T16:29:39.882Z,99.90
2023-05-14T16:32:06.758Z,99.90
2023-05-14T16:34:33.514Z,99.90
2023-05-14T16:37:00.272Z,99.90
2023-05-14T16:39:27.072Z,99.90
2023-05-14T16:41:53.764Z,99.90
2023-05-14T16:44:20.673Z,99.90
2023-05-14T16:46:48.115Z,99.90
2023-05-14T16:49:15.016Z,99.90
2023-05-14T16:51:43.234Z,99.90
2023-05-14T16:54:10.164Z,99.90
2023-05-14T16:56:37.050Z,99.90
2023-05-14T16:59:03.772Z,99.90
2023-05-14T17:01:31.060Z,99.90
2023-05-14T17:03:57.776Z,99.90
2023-05-14T17:06:24.555Z,99.90
2023-05-14T17:08:51.246Z,99.90
2023-05-14T17:11:17.942Z,99.90
2023-05-14T17:13:44.612Z,99.90
2023-05-14T17:16:11.596Z,99.90
2023-05-14T17:18:38.777Z,99.90
2023-05-14T17:21:07.538Z,99.90
2023-05-14T17:23:34.423Z,99.90
2023-05-14T17:26:01.108Z,99.90
2023-05-14T17:28:29.768Z,99.90
2023-05-14T17:30:57.263Z,99.90
2023-05-14T17:33:24.223Z,99.90
2023-05-14T17:35:50.968Z,99.90
2023-05-14T17:38:17.683Z,99.90
2023-05-14T17:40:44.372Z,99.90
2023-05-14T17:43:19.259Z,99.90
2023-05-14T17:45:54.026Z,99.90
2023-05-14T17:48:22.563Z,99.90
2023-05-14T17:50:49.465Z,99.90
2023-05-14T17:53:16.152Z,99.90
2023-05-14T17:55:45.889Z,99.90
2023-05-14T17:58:15.216Z,99.90
2023-05-14T18:00:42.570Z,99.90
2023-05-14T18:03:10.332Z,99.90
2023-05-14T18:05:37.372Z,99.90
2023-05-14T18:08:05.315Z,99.90
2023-05-14T18:10:32.032Z,99.90
2023-05-14T18:12:59.086Z,99.90
2023-05-14T18:15:27.326Z,99.90
2023-05-14T18:17:54.462Z,99.90
2023-05-14T18:20:21.428Z,99.90
2023-05-14T18:22:48.274Z,99.90
2023-05-14T18:25:28.540Z,99.90
2023-05-14T18:27:55.274Z,99.90
2023-05-14T18:30:22.008Z,99.90
2023-05-14T18:32:48.723Z,99.90
2023-05-14T18:35:30.019Z,99.90
2023-05-14T18:37:56.762Z,99.90
2023-05-14T18:40:23.474Z,99.90
2023-05-14T18:42:50.425Z,99.90
2023-05-14T18:45:17.130Z,99.90
2023-05-14T18:47:44.031Z,99.90
2023-05-14T18:50:11.116Z,99.90
2023-05-14T18:52:38.237Z,99.90
2023-05-14T18:55:05.448Z,99.90
2023-05-14T18:57:32.965Z,99.90
2023-05-14T19:00:04.003Z,99.90
2023-05-14T19:02:30.909Z,99.90
2023-05-14T19:04:57.685Z,99.90
2023-05-14T19:07:24.495Z,99.90
2023-05-14T19:09:51.512Z,99.90
2023-05-14T19:12:18.211Z,99.90
2023-05-14T19:14:44.980Z,99.90
2023-05-14T19:17:11.842Z,99.90
2023-05-14T19:19:39.402Z,99.90
2023-05-14T19:22:06.769Z,99.90
2023-05-14T19:24:33.621Z,99.90
2023-05-14T19:27:00.592Z,99.90
2023-05-14T19:29:27.302Z,99.90
2023-05-14T19:31:57.237Z,99.90
2023-05-14T19:34:28.208Z,99.90
2023-05-14T19:36:54.982Z,99.90
2023-05-14T19:39:22.720Z,99.90
2023-05-14T19:41:49.443Z,99.90
2023-05-14T19:44:16.110Z,99.90
2023-05-14T19:46:42.900Z,99.90
2023-05-14T19:49:14.701Z,99.90
2023-05-14T19:51:41.427Z,99.90
2023-05-14T19:54:21.696Z,99.90
2023-05-14T19:56:48.504Z,99.90
2023-05-14T19:59:15.263Z,99.90
2023-05-14T20:01:42.123Z,99.90
2023-05-14T20:04:08.981Z,99.90
2023-05-14T20:06:35.757Z,99.90
2023-05-14T20:09:02.553Z,99.90
2023-05-14T20:11:29.310Z,99.90
2023-05-14T20:13:56.052Z,99.90
2023-05-14T20:16:23.472Z,99.90
2023-05-14T20:18:50.384Z,99.90
2023-05-14T20:21:17.114Z,99.90
2023-05-14T20:23:43.812Z,99.90
2023-05-14T20:26:10.565Z,99.90
2023-05-14T20:28:37.321Z,99.90
2023-05-14T20:31:04.117Z,99.90
2023-05-14T20:33:31.040Z,99.90
2023-05-14T20:35:57.823Z,99.90
2023-05-14T20:38:25.743Z,99.90
2023-05-14T20:40:52.501Z,99.90
2023-05-14T20:43:19.200Z,99.90
2023-05-14T20:45:46.141Z,99.90
2023-05-14T20:48:16.229Z,99.90
2023-05-14T20:50:43.449Z,99.90
2023-05-14T20:53:10.101Z,99.90
2023-05-14T20:55:36.786Z,99.90
2023-05-14T20:58:03.479Z,99.90
2023-05-14T21:00:30.196Z,99.90
2023-05-14T21:02:57.127Z,99.90
2023-05-14T21:05:24.080Z,99.90
2023-05-14T21:07:51.001Z,99.90
2023-05-14T21:10:17.734Z,99.90
2023-05-14T21:12:44.952Z,99.90
2023-05-14T21:15:11.993Z,99.90
2023-05-14T21:17:38.757Z,99.90
2023-05-14T21:20:06.038Z,99.90
2023-05-14T21:22:32.997Z,99.90
2023-05-14T21:24:59.718Z,99.90
2023-05-14T21:27:26.646Z,99.90
2023-05-14T21:29:53.387Z,99.90
2023-05-14T21:32:22.155Z,99.90
2023-05-14T21:34:49.087Z,99.90
2023-05-14T21:37:15.869Z,99.90
2023-05-14T21:39:42.650Z,99.90
2023-05-14T21:42:09.731Z,99.90
2023-05-14T21:44:36.438Z,99.90
2023-05-14T21:47:03.897Z,99.90
2023-05-14T21:49:30.808Z,99.90
2023-05-14T21:51:57.537Z,99.90
2023-05-14T21:54:24.328Z,99.90
2023-05-14T21:56:51.275Z,99.90
2023-05-14T21:59:17.975Z,99.90
2023-05-14T22:04:14.412Z,99.90
2023-05-14T22:06:41.330Z,99.90
2023-05-14T22:09:10.958Z,99.90
2023-05-14T22:11:37.689Z,99.90
2023-05-14T22:14:04.374Z,99.90
2023-05-14T22:16:38.307Z,99.90
2023-05-14T22:19:06.542Z,99.90
2023-05-14T22:21:33.859Z,99.90
2023-05-14T22:24:00.587Z,99.90
2023-05-14T22:26:27.351Z,99.90
2023-05-14T22:28:54.072Z,99.90
2023-05-14T22:31:21.055Z,99.90
2023-05-14T22:33:47.897Z,99.90
2023-05-14T22:36:14.608Z,99.90
2023-05-14T22:38:43.763Z,99.90
2023-05-14T22:41:10.935Z,99.90
2023-05-14T22:43:37.709Z,99.90
2023-05-14T22:46:04.640Z,99.90
2023-05-14T22:48:31.357Z,99.90
2023-05-14T22:50:58.071Z,99.90
2023-05-14T22:53:25.379Z,99.90
2023-05-14T22:55:52.274Z,99.90
2023-05-14T22:58:19.045Z,99.90
2023-05-14T23:00:45.818Z,99.90
2023-05-14T23:03:12.522Z,99.90
2023-05-14T23:05:39.217Z,99.90
2023-05-14T23:08:06.379Z,99.90
2023-05-14T23:10:35.559Z,99.90
2023-05-14T23:13:02.352Z,99.90
2023-05-14T23:15:29.081Z,99.90
2023-05-14T23:18:05.252Z,99.90
2023-05-14T23:20:32.024Z,99.90
2023-05-14T23:22:58.779Z,99.90
2023-05-14T23:25:25.840Z,99.90
2023-05-14T23:27:52.716Z,99.90
2023-05-14T23:30:19.605Z,99.90
2023-05-14T23:32:46.371Z,99.90
2023-05-14T23:35:13.172Z,99.90
2023-05-14T23:37:46.891Z,99.90
2023-05-14T23:40:13.777Z,99.90
2023-05-14T23:42:40.544Z,99.90
2023-05-14T23:45:07.879Z,99.90
2023-05-14T23:47:34.963Z,99.90
2023-05-14T23:50:01.904Z,99.90
2023-05-14T23:52:28.703Z,99.90
2023-05-14T23:54:55.423Z,99.90
2023-05-14T23:57:22.220Z,99.90
2023-05-14T23:59:48.963Z,99.90
